sensor_id;sensor_type;location;lat;lon;timestamp;P1;durP1;ratioP1;P2;durP2;ratioP2
39434;SDS011;66825;51.880;-0.518;2023-02-10T00:00:44;5.38;;;2.80;;
39434;SDS011;66825;51.880;-0.518;2023-02-10T00:03:09;3.30;;;2.35;;
39434;SDS011;66825;51.880;-0.518;2023-02-10T00:05:35;3.67;;;2.40;;
39434;SDS011;66825;51.880;-0.518;2023-02-10T00:08:00;3.95;;;2.60;;
39434;SDS011;66825;51.880;-0.518;2023-02-10T00:10:25;3.90;;;2.40;;
39434;SDS011;66825;51.880;-0.518;2023-02-10T00:12:51;3.58;;;2.55;;
39434;SDS011;66825;51.880;-0.518;2023-02-10T00:15:16;4.43;;;2.90;;
39434;SDS011;66825;51.880;-0.518;2023-02-10T00:17:42;4.75;;;2.90;;
39434;SDS011;66825;51.880;-0.518;2023-02-10T00:20:07;4.45;;;2.88;;
39434;SDS011;66825;51.880;-0.518;2023-02-10T00:22:34;3.55;;;2.63;;
39434;SDS011;66825;51.880;-0.518;2023-02-10T00:24:59;3.97;;;2.80;;
39434;SDS011;66825;51.880;-0.518;2023-02-10T00:27:25;3.95;;;2.90;;
39434;SDS011;66825;51.880;-0.518;2023-02-10T00:29:50;4.13;;;2.90;;
39434;SDS011;66825;51.880;-0.518;2023-02-10T00:32:16;4.88;;;3.13;;
39434;SDS011;66825;51.880;-0.518;2023-02-10T00:34:45;4.47;;;3.08;;
39434;SDS011;66825;51.880;-0.518;2023-02-10T00:37:11;4.53;;;3.03;;
39434;SDS011;66825;51.880;-0.518;2023-02-10T00:39:37;4.15;;;2.72;;
39434;SDS011;66825;51.880;-0.518;2023-02-10T00:42:02;4.88;;;3.22;;
39434;SDS011;66825;51.880;-0.518;2023-02-10T00:44:28;3.90;;;2.95;;
39434;SDS011;66825;51.880;-0.518;2023-02-10T00:46:53;5.13;;;3.20;;
39434;SDS011;66825;51.880;-0.518;2023-02-10T00:49:19;4.82;;;3.10;;
39434;SDS011;66825;51.880;-0.518;2023-02-10T00:51:44;4.78;;;3.13;;
39434;SDS011;66825;51.880;-0.518;2023-02-10T00:54:10;5.20;;;3.58;;
39434;SDS011;66825;51.880;-0.518;2023-02-10T00:56:37;4.38;;;2.83;;
39434;SDS011;66825;51.880;-0.518;2023-02-10T00:59:02;5.32;;;3.28;;
39434;SDS011;66825;51.880;-0.518;2023-02-10T01:01:28;4.10;;;2.95;;
39434;SDS011;66825;51.880;-0.518;2023-02-10T01:03:53;4.82;;;3.30;;
39434;SDS011;66825;51.880;-0.518;2023-02-10T01:06:19;5.13;;;3.10;;
39434;SDS011;66825;51.880;-0.518;2023-02-10T01:08:44;4.72;;;3.00;;
39434;SDS011;66825;51.880;-0.518;2023-02-10T01:11:10;4.00;;;2.80;;
39434;SDS011;66825;51.880;-0.518;2023-02-10T01:13:37;4.22;;;3.03;;
39434;SDS011;66825;51.880;-0.518;2023-02-10T01:16:04;4.85;;;3.20;;
39434;SDS011;66825;51.880;-0.518;2023-02-10T01:18:31;4.88;;;3.47;;
39434;SDS011;66825;51.880;-0.518;2023-02-10T01:20:56;5.15;;;3.47;;
39434;SDS011;66825;51.880;-0.518;2023-02-10T01:23:22;4.95;;;3.25;;
39434;SDS011;66825;51.880;-0.518;2023-02-10T01:25:48;4.68;;;3.45;;
39434;SDS011;66825;51.880;-0.518;2023-02-10T01:28:13;5.25;;;3.20;;
39434;SDS011;66825;51.880;-0.518;2023-02-10T01:30:38;5.45;;;3.40;;
39434;SDS011;66825;51.880;-0.518;2023-02-10T01:33:04;4.05;;;3.08;;
39434;SDS011;66825;51.880;-0.518;2023-02-10T01:35:29;4.90;;;3.35;;
39434;SDS011;66825;51.880;-0.518;2023-02-10T01:37:55;4.38;;;3.20;;
39434;SDS011;66825;51.880;-0.518;2023-02-10T01:40:21;5.07;;;3.40;;
39434;SDS011;66825;51.880;-0.518;2023-02-10T01:42:49;5.00;;;3.40;;
39434;SDS011;66825;51.880;-0.518;2023-02-10T01:45:19;5.05;;;3.50;;
39434;SDS011;66825;51.880;-0.518;2023-02-10T01:47:45;4.45;;;3.30;;
39434;SDS011;66825;51.880;-0.518;2023-02-10T01:50:13;6.07;;;3.60;;
39434;SDS011;66825;51.880;-0.518;2023-02-10T01:52:41;4.68;;;3.63;;
39434;SDS011;66825;51.880;-0.518;2023-02-10T01:55:12;5.05;;;3.40;;
39434;SDS011;66825;51.880;-0.518;2023-02-10T01:57:42;4.75;;;3.38;;
39434;SDS011;66825;51.880;-0.518;2023-02-10T02:00:10;5.13;;;3.38;;
39434;SDS011;66825;51.880;-0.518;2023-02-10T02:02:37;4.70;;;3.50;;
39434;SDS011;66825;51.880;-0.518;2023-02-10T02:05:05;4.78;;;3.35;;
39434;SDS011;66825;51.880;-0.518;2023-02-10T02:07:42;5.15;;;3.25;;
39434;SDS011;66825;51.880;-0.518;2023-02-10T02:10:08;5.45;;;3.70;;
39434;SDS011;66825;51.880;-0.518;2023-02-10T02:15:40;4.15;;;3.25;;
39434;SDS011;66825;51.880;-0.518;2023-02-10T02:18:14;5.20;;;3.60;;
39434;SDS011;66825;51.880;-0.518;2023-02-10T02:27:19;4.57;;;3.45;;
39434;SDS011;66825;51.880;-0.518;2023-02-10T02:34:39;4.68;;;3.47;;
39434;SDS011;66825;51.880;-0.518;2023-02-10T02:37:37;5.15;;;3.53;;
39434;SDS011;66825;51.880;-0.518;2023-02-10T02:40:07;5.93;;;3.97;;
39434;SDS011;66825;51.880;-0.518;2023-02-10T02:42:33;4.88;;;3.53;;
39434;SDS011;66825;51.880;-0.518;2023-02-10T02:45:01;4.93;;;3.60;;
39434;SDS011;66825;51.880;-0.518;2023-02-10T02:52:30;5.82;;;4.00;;
39434;SDS011;66825;51.880;-0.518;2023-02-10T02:55:19;5.18;;;3.58;;
39434;SDS011;66825;51.880;-0.518;2023-02-10T02:57:55;4.60;;;3.38;;
39434;SDS011;66825;51.880;-0.518;2023-02-10T03:00:29;4.68;;;3.30;;
39434;SDS011;66825;51.880;-0.518;2023-02-10T03:02:57;5.35;;;4.00;;
39434;SDS011;66825;51.880;-0.518;2023-02-10T03:05:27;5.00;;;3.70;;
39434;SDS011;66825;51.880;-0.518;2023-02-10T03:10:21;4.97;;;3.58;;
39434;SDS011;66825;51.880;-0.518;2023-02-10T03:12:46;5.10;;;3.88;;
39434;SDS011;66825;51.880;-0.518;2023-02-10T03:15:12;3.75;;;3.20;;
39434;SDS011;66825;51.880;-0.518;2023-02-10T03:17:38;5.82;;;3.92;;
39434;SDS011;66825;51.880;-0.518;2023-02-10T03:20:05;3.97;;;3.00;;
39434;SDS011;66825;51.880;-0.518;2023-02-10T03:22:31;5.15;;;3.90;;
39434;SDS011;66825;51.880;-0.518;2023-02-10T03:24:56;5.05;;;3.28;;
39434;SDS011;66825;51.880;-0.518;2023-02-10T03:27:22;6.28;;;3.70;;
39434;SDS011;66825;51.880;-0.518;2023-02-10T03:29:47;4.47;;;3.50;;
39434;SDS011;66825;51.880;-0.518;2023-02-10T03:32:14;5.43;;;3.90;;
39434;SDS011;66825;51.880;-0.518;2023-02-10T03:34:40;4.53;;;3.50;;
39434;SDS011;66825;51.880;-0.518;2023-02-10T03:37:07;5.38;;;3.58;;
39434;SDS011;66825;51.880;-0.518;2023-02-10T03:39:32;5.47;;;3.72;;
39434;SDS011;66825;51.880;-0.518;2023-02-10T03:41:58;4.38;;;3.40;;
39434;SDS011;66825;51.880;-0.518;2023-02-10T03:44:23;5.30;;;3.53;;
39434;SDS011;66825;51.880;-0.518;2023-02-10T03:46:49;5.43;;;3.50;;
39434;SDS011;66825;51.880;-0.518;2023-02-10T03:49:14;4.97;;;3.17;;
39434;SDS011;66825;51.880;-0.518;2023-02-10T03:51:40;4.82;;;3.60;;
39434;SDS011;66825;51.880;-0.518;2023-02-10T03:54:05;5.07;;;3.60;;
39434;SDS011;66825;51.880;-0.518;2023-02-10T03:56:31;4.95;;;3.55;;
39434;SDS011;66825;51.880;-0.518;2023-02-10T03:58:59;5.03;;;3.50;;
39434;SDS011;66825;51.880;-0.518;2023-02-10T04:01:25;5.35;;;3.47;;
39434;SDS011;66825;51.880;-0.518;2023-02-10T04:03:50;4.63;;;3.45;;
39434;SDS011;66825;51.880;-0.518;2023-02-10T04:06:16;5.30;;;3.50;;
39434;SDS011;66825;51.880;-0.518;2023-02-10T04:08:41;5.13;;;3.70;;
39434;SDS011;66825;51.880;-0.518;2023-02-10T04:11:07;5.65;;;3.60;;
39434;SDS011;66825;51.880;-0.518;2023-02-10T04:13:34;5.65;;;3.70;;
39434;SDS011;66825;51.880;-0.518;2023-02-10T04:16:07;4.28;;;3.30;;
39434;SDS011;66825;51.880;-0.518;2023-02-10T04:18:35;4.10;;;3.40;;
39434;SDS011;66825;51.880;-0.518;2023-02-10T04:21:01;4.75;;;3.30;;
39434;SDS011;66825;51.880;-0.518;2023-02-10T04:23:28;5.22;;;3.50;;
39434;SDS011;66825;51.880;-0.518;2023-02-10T04:25:54;4.65;;;3.38;;
39434;SDS011;66825;51.880;-0.518;2023-02-10T04:28:19;5.68;;;3.40;;
39434;SDS011;66825;51.880;-0.518;2023-02-10T04:30:45;4.72;;;3.53;;
39434;SDS011;66825;51.880;-0.518;2023-02-10T04:33:11;4.25;;;3.05;;
39434;SDS011;66825;51.880;-0.518;2023-02-10T04:35:36;5.25;;;3.72;;
39434;SDS011;66825;51.880;-0.518;2023-02-10T04:38:02;4.18;;;3.20;;
39434;SDS011;66825;51.880;-0.518;2023-02-10T04:40:29;5.45;;;3.67;;
39434;SDS011;66825;51.880;-0.518;2023-02-10T04:42:55;4.63;;;3.28;;
39434;SDS011;66825;51.880;-0.518;2023-02-10T04:45:20;5.18;;;3.58;;
39434;SDS011;66825;51.880;-0.518;2023-02-10T04:47:46;5.15;;;3.53;;
39434;SDS011;66825;51.880;-0.518;2023-02-10T04:50:11;4.50;;;3.13;;
39434;SDS011;66825;51.880;-0.518;2023-02-10T04:52:37;4.82;;;3.80;;
39434;SDS011;66825;51.880;-0.518;2023-02-10T04:55:02;4.75;;;3.55;;
39434;SDS011;66825;51.880;-0.518;2023-02-10T04:57:28;4.57;;;3.50;;
39434;SDS011;66825;51.880;-0.518;2023-02-10T04:59:53;4.30;;;3.45;;
39434;SDS011;66825;51.880;-0.518;2023-02-10T05:02:19;5.18;;;3.40;;
39434;SDS011;66825;51.880;-0.518;2023-02-10T05:04:44;5.45;;;3.60;;
39434;SDS011;66825;51.880;-0.518;2023-02-10T05:07:10;4.57;;;3.28;;
39434;SDS011;66825;51.880;-0.518;2023-02-10T05:09:36;5.07;;;3.35;;
39434;SDS011;66825;51.880;-0.518;2023-02-10T05:12:01;5.13;;;3.50;;
39434;SDS011;66825;51.880;-0.518;2023-02-10T05:14:27;5.90;;;3.67;;
39434;SDS011;66825;51.880;-0.518;2023-02-10T05:16:52;4.95;;;3.38;;
39434;SDS011;66825;51.880;-0.518;2023-02-10T05:19:18;4.32;;;3.15;;
39434;SDS011;66825;51.880;-0.518;2023-02-10T05:21:43;4.40;;;3.17;;
39434;SDS011;66825;51.880;-0.518;2023-02-10T05:24:09;4.45;;;3.20;;
39434;SDS011;66825;51.880;-0.518;2023-02-10T05:26:34;4.30;;;3.45;;
39434;SDS011;66825;51.880;-0.518;2023-02-10T05:29:00;4.13;;;3.28;;
39434;SDS011;66825;51.880;-0.518;2023-02-10T05:31:25;4.65;;;3.10;;
39434;SDS011;66825;51.880;-0.518;2023-02-10T05:33:50;4.43;;;3.38;;
39434;SDS011;66825;51.880;-0.518;2023-02-10T05:36:18;4.80;;;3.38;;
39434;SDS011;66825;51.880;-0.518;2023-02-10T05:38:44;5.25;;;3.30;;
39434;SDS011;66825;51.880;-0.518;2023-02-10T05:41:29;4.40;;;3.40;;
39434;SDS011;66825;51.880;-0.518;2023-02-10T05:43:55;4.28;;;3.15;;
39434;SDS011;66825;51.880;-0.518;2023-02-10T05:46:20;4.53;;;3.30;;
39434;SDS011;66825;51.880;-0.518;2023-02-10T05:48:46;4.80;;;3.40;;
39434;SDS011;66825;51.880;-0.518;2023-02-10T05:51:11;5.28;;;3.20;;
39434;SDS011;66825;51.880;-0.518;2023-02-10T05:53:37;4.40;;;3.10;;
39434;SDS011;66825;51.880;-0.518;2023-02-10T05:56:02;4.25;;;3.22;;
39434;SDS011;66825;51.880;-0.518;2023-02-10T05:58:28;4.93;;;3.30;;
39434;SDS011;66825;51.880;-0.518;2023-02-10T06:00:57;4.63;;;2.83;;
39434;SDS011;66825;51.880;-0.518;2023-02-10T06:03:26;3.92;;;3.10;;
39434;SDS011;66825;51.880;-0.518;2023-02-10T06:05:51;4.18;;;3.08;;
39434;SDS011;66825;51.880;-0.518;2023-02-10T06:08:17;5.13;;;3.40;;
39434;SDS011;66825;51.880;-0.518;2023-02-10T06:10:42;5.70;;;3.28;;
39434;SDS011;66825;51.880;-0.518;2023-02-10T06:13:08;4.07;;;2.90;;
39434;SDS011;66825;51.880;-0.518;2023-02-10T06:15:33;4.40;;;3.33;;
39434;SDS011;66825;51.880;-0.518;2023-02-10T06:17:59;4.35;;;2.80;;
39434;SDS011;66825;51.880;-0.518;2023-02-10T06:20:24;5.18;;;3.30;;
39434;SDS011;66825;51.880;-0.518;2023-02-10T06:22:50;4.53;;;3.30;;
39434;SDS011;66825;51.880;-0.518;2023-02-10T06:25:15;4.85;;;3.20;;
39434;SDS011;66825;51.880;-0.518;2023-02-10T06:27:41;4.20;;;3.03;;
39434;SDS011;66825;51.880;-0.518;2023-02-10T06:30:07;3.90;;;3.13;;
39434;SDS011;66825;51.880;-0.518;2023-02-10T06:32:33;4.95;;;3.35;;
39434;SDS011;66825;51.880;-0.518;2023-02-10T06:34:58;5.15;;;3.20;;
39434;SDS011;66825;51.880;-0.518;2023-02-10T06:37:24;5.15;;;3.45;;
39434;SDS011;66825;51.880;-0.518;2023-02-10T06:39:49;4.32;;;3.03;;
39434;SDS011;66825;51.880;-0.518;2023-02-10T06:42:15;4.35;;;3.03;;
39434;SDS011;66825;51.880;-0.518;2023-02-10T06:44:40;4.75;;;2.95;;
39434;SDS011;66825;51.880;-0.518;2023-02-10T06:47:06;4.28;;;3.05;;
39434;SDS011;66825;51.880;-0.518;2023-02-10T06:49:31;4.25;;;2.85;;
39434;SDS011;66825;51.880;-0.518;2023-02-10T06:51:57;4.88;;;3.33;;
39434;SDS011;66825;51.880;-0.518;2023-02-10T06:54:22;3.92;;;2.95;;
39434;SDS011;66825;51.880;-0.518;2023-02-10T06:56:48;4.15;;;3.10;;
39434;SDS011;66825;51.880;-0.518;2023-02-10T06:59:13;3.83;;;2.95;;
39434;SDS011;66825;51.880;-0.518;2023-02-10T07:01:39;4.05;;;2.90;;
39434;SDS011;66825;51.880;-0.518;2023-02-10T07:04:04;4.03;;;2.88;;
39434;SDS011;66825;51.880;-0.518;2023-02-10T07:06:30;4.47;;;2.85;;
39434;SDS011;66825;51.880;-0.518;2023-02-10T07:08:55;4.13;;;3.10;;
39434;SDS011;66825;51.880;-0.518;2023-02-10T07:11:21;3.97;;;3.20;;
39434;SDS011;66825;51.880;-0.518;2023-02-10T07:13:46;4.05;;;2.80;;
39434;SDS011;66825;51.880;-0.518;2023-02-10T07:16:12;4.22;;;2.83;;
39434;SDS011;66825;51.880;-0.518;2023-02-10T07:18:40;4.20;;;2.90;;
39434;SDS011;66825;51.880;-0.518;2023-02-10T07:21:06;4.10;;;3.05;;
39434;SDS011;66825;51.880;-0.518;2023-02-10T07:23:31;4.82;;;3.22;;
39434;SDS011;66825;51.880;-0.518;2023-02-10T07:25:57;5.32;;;3.10;;
39434;SDS011;66825;51.880;-0.518;2023-02-10T07:28:22;4.85;;;3.05;;
39434;SDS011;66825;51.880;-0.518;2023-02-10T07:30:47;4.38;;;3.05;;
39434;SDS011;66825;51.880;-0.518;2023-02-10T07:33:13;3.72;;;2.70;;
39434;SDS011;66825;51.880;-0.518;2023-02-10T07:35:38;4.00;;;2.80;;
39434;SDS011;66825;51.880;-0.518;2023-02-10T07:38:04;4.13;;;2.80;;
39434;SDS011;66825;51.880;-0.518;2023-02-10T07:40:29;3.90;;;2.70;;
39434;SDS011;66825;51.880;-0.518;2023-02-10T07:42:55;4.82;;;3.33;;
39434;SDS011;66825;51.880;-0.518;2023-02-10T07:45:21;3.75;;;2.80;;
39434;SDS011;66825;51.880;-0.518;2023-02-10T07:47:47;4.45;;;2.90;;
39434;SDS011;66825;51.880;-0.518;2023-02-10T07:50:13;4.30;;;2.90;;
39434;SDS011;66825;51.880;-0.518;2023-02-10T07:52:38;4.20;;;2.92;;
39434;SDS011;66825;51.880;-0.518;2023-02-10T07:55:06;4.68;;;2.65;;
39434;SDS011;66825;51.880;-0.518;2023-02-10T07:57:32;4.70;;;3.28;;
39434;SDS011;66825;51.880;-0.518;2023-02-10T07:59:57;4.10;;;3.00;;
39434;SDS011;66825;51.880;-0.518;2023-02-10T08:02:23;4.82;;;3.03;;
39434;SDS011;66825;51.880;-0.518;2023-02-10T08:04:48;4.15;;;2.70;;
39434;SDS011;66825;51.880;-0.518;2023-02-10T08:07:14;4.38;;;3.13;;
39434;SDS011;66825;51.880;-0.518;2023-02-10T08:09:39;5.00;;;3.08;;
39434;SDS011;66825;51.880;-0.518;2023-02-10T08:12:06;5.20;;;2.80;;
39434;SDS011;66825;51.880;-0.518;2023-02-10T08:14:31;4.78;;;2.78;;
39434;SDS011;66825;51.880;-0.518;2023-02-10T08:16:57;4.72;;;3.05;;
39434;SDS011;66825;51.880;-0.518;2023-02-10T08:19:22;3.88;;;2.80;;
39434;SDS011;66825;51.880;-0.518;2023-02-10T08:21:48;3.97;;;2.53;;
39434;SDS011;66825;51.880;-0.518;2023-02-10T08:24:13;4.55;;;2.95;;
39434;SDS011;66825;51.880;-0.518;2023-02-10T08:26:39;4.80;;;2.58;;
39434;SDS011;66825;51.880;-0.518;2023-02-10T08:29:05;4.72;;;2.90;;
39434;SDS011;66825;51.880;-0.518;2023-02-10T08:31:31;4.43;;;2.90;;
39434;SDS011;66825;51.880;-0.518;2023-02-10T08:33:57;4.18;;;2.60;;
39434;SDS011;66825;51.880;-0.518;2023-02-10T08:36:23;4.43;;;2.70;;
39434;SDS011;66825;51.880;-0.518;2023-02-10T08:38:49;4.22;;;2.78;;
39434;SDS011;66825;51.880;-0.518;2023-02-10T08:41:15;4.40;;;2.92;;
39434;SDS011;66825;51.880;-0.518;2023-02-10T08:43:41;3.92;;;2.67;;
39434;SDS011;66825;51.880;-0.518;2023-02-10T08:46:07;4.10;;;2.63;;
39434;SDS011;66825;51.880;-0.518;2023-02-10T08:48:33;3.65;;;2.65;;
39434;SDS011;66825;51.880;-0.518;2023-02-10T08:50:59;4.70;;;2.55;;
39434;SDS011;66825;51.880;-0.518;2023-02-10T08:53:25;5.43;;;2.90;;
39434;SDS011;66825;51.880;-0.518;2023-02-10T08:55:54;4.05;;;2.60;;
39434;SDS011;66825;51.880;-0.518;2023-02-10T08:58:21;4.80;;;2.80;;
39434;SDS011;66825;51.880;-0.518;2023-02-10T09:00:46;3.83;;;2.42;;
39434;SDS011;66825;51.880;-0.518;2023-02-10T09:03:12;3.20;;;2.50;;
39434;SDS011;66825;51.880;-0.518;2023-02-10T09:05:37;3.10;;;2.40;;
39434;SDS011;66825;51.880;-0.518;2023-02-10T09:08:03;3.42;;;2.55;;
39434;SDS011;66825;51.880;-0.518;2023-02-10T09:10:29;4.28;;;2.75;;
39434;SDS011;66825;51.880;-0.518;2023-02-10T09:12:55;4.15;;;2.50;;
39434;SDS011;66825;51.880;-0.518;2023-02-10T09:15:20;5.00;;;2.88;;
39434;SDS011;66825;51.880;-0.518;2023-02-10T09:17:45;4.38;;;2.90;;
39434;SDS011;66825;51.880;-0.518;2023-02-10T09:20:11;5.45;;;3.10;;
39434;SDS011;66825;51.880;-0.518;2023-02-10T09:22:37;6.72;;;3.20;;
39434;SDS011;66825;51.880;-0.518;2023-02-10T09:25:02;5.05;;;2.92;;
39434;SDS011;66825;51.880;-0.518;2023-02-10T09:27:28;4.25;;;2.90;;
39434;SDS011;66825;51.880;-0.518;2023-02-10T09:29:53;7.45;;;2.88;;
39434;SDS011;66825;51.880;-0.518;2023-02-10T09:32:19;4.82;;;2.70;;
39434;SDS011;66825;51.880;-0.518;2023-02-10T09:34:44;5.60;;;2.70;;
39434;SDS011;66825;51.880;-0.518;2023-02-10T09:37:10;4.85;;;2.70;;
39434;SDS011;66825;51.880;-0.518;2023-02-10T09:39:36;4.47;;;2.70;;
39434;SDS011;66825;51.880;-0.518;2023-02-10T09:45:19;3.97;;;2.70;;
39434;SDS011;66825;51.880;-0.518;2023-02-10T09:47:50;4.93;;;2.60;;
39434;SDS011;66825;51.880;-0.518;2023-02-10T09:55:52;6.55;;;2.80;;
39434;SDS011;66825;51.880;-0.518;2023-02-10T10:01:17;4.35;;;2.45;;
39434;SDS011;66825;51.880;-0.518;2023-02-10T10:06:30;7.00;;;2.80;;
39434;SDS011;66825;51.880;-0.518;2023-02-10T10:11:45;11.80;;;3.33;;
39434;SDS011;66825;51.880;-0.518;2023-02-10T10:14:16;14.02;;;4.07;;
39434;SDS011;66825;51.880;-0.518;2023-02-10T10:16:54;9.05;;;3.38;;
39434;SDS011;66825;51.880;-0.518;2023-02-10T10:22:57;7.38;;;3.22;;
39434;SDS011;66825;51.880;-0.518;2023-02-10T10:31:15;6.40;;;2.85;;
39434;SDS011;66825;51.880;-0.518;2023-02-10T10:33:49;6.53;;;2.60;;
39434;SDS011;66825;51.880;-0.518;2023-02-10T10:36:19;9.50;;;3.00;;
39434;SDS011;66825;51.880;-0.518;2023-02-10T10:38:51;5.55;;;2.65;;
39434;SDS011;66825;51.880;-0.518;2023-02-10T10:41:18;4.88;;;2.47;;
39434;SDS011;66825;51.880;-0.518;2023-02-10T10:43:51;10.75;;;2.78;;
39434;SDS011;66825;51.880;-0.518;2023-02-10T10:46:23;11.77;;;3.17;;
39434;SDS011;66825;51.880;-0.518;2023-02-10T10:48:52;10.23;;;2.90;;
39434;SDS011;66825;51.880;-0.518;2023-02-10T10:51:19;8.27;;;2.75;;
39434;SDS011;66825;51.880;-0.518;2023-02-10T10:53:52;7.00;;;2.60;;
39434;SDS011;66825;51.880;-0.518;2023-02-10T10:59:16;8.67;;;3.30;;
39434;SDS011;66825;51.880;-0.518;2023-02-10T11:01:50;8.40;;;2.55;;
39434;SDS011;66825;51.880;-0.518;2023-02-10T11:04:24;7.18;;;2.50;;
39434;SDS011;66825;51.880;-0.518;2023-02-10T11:06:53;9.32;;;2.50;;
39434;SDS011;66825;51.880;-0.518;2023-02-10T11:11:51;6.30;;;2.42;;
39434;SDS011;66825;51.880;-0.518;2023-02-10T11:14:19;6.93;;;2.38;;
39434;SDS011;66825;51.880;-0.518;2023-02-10T11:16:51;4.85;;;2.33;;
39434;SDS011;66825;51.880;-0.518;2023-02-10T11:19:26;6.35;;;2.30;;
39434;SDS011;66825;51.880;-0.518;2023-02-10T11:21:53;5.95;;;2.40;;
39434;SDS011;66825;51.880;-0.518;2023-02-10T11:26:56;10.60;;;2.70;;
39434;SDS011;66825;51.880;-0.518;2023-02-10T11:29:23;11.07;;;2.92;;
39434;SDS011;66825;51.880;-0.518;2023-02-10T11:31:51;13.02;;;3.00;;
39434;SDS011;66825;51.880;-0.518;2023-02-10T11:35:01;5.75;;;2.47;;
39434;SDS011;66825;51.880;-0.518;2023-02-10T11:37:13;6.35;;;1.88;;
39434;SDS011;66825;51.880;-0.518;2023-02-10T11:39:54;6.78;;;2.00;;
39434;SDS011;66825;51.880;-0.518;2023-02-10T11:42:22;7.70;;;2.17;;
39434;SDS011;66825;51.880;-0.518;2023-02-10T11:47:27;6.38;;;2.17;;
39434;SDS011;66825;51.880;-0.518;2023-02-10T11:49:55;6.13;;;2.47;;
39434;SDS011;66825;51.880;-0.518;2023-02-10T11:52:22;8.77;;;2.38;;
39434;SDS011;66825;51.880;-0.518;2023-02-10T11:54:49;14.57;;;3.38;;
39434;SDS011;66825;51.880;-0.518;2023-02-10T12:00:28;6.38;;;2.15;;
39434;SDS011;66825;51.880;-0.518;2023-02-10T12:03:26;7.22;;;2.30;;
39434;SDS011;66825;51.880;-0.518;2023-02-10T12:09:05;6.10;;;2.38;;
39434;SDS011;66825;51.880;-0.518;2023-02-10T12:11:54;4.15;;;1.90;;
39434;SDS011;66825;51.880;-0.518;2023-02-10T12:14:45;6.10;;;2.45;;
39434;SDS011;66825;51.880;-0.518;2023-02-10T12:17:33;6.82;;;2.20;;
39434;SDS011;66825;51.880;-0.518;2023-02-10T12:31:53;3.78;;;1.67;;
39434;SDS011;66825;51.880;-0.518;2023-02-10T12:42:42;4.90;;;1.80;;
39434;SDS011;66825;51.880;-0.518;2023-02-10T12:47:57;4.28;;;1.60;;
39434;SDS011;66825;51.880;-0.518;2023-02-10T12:53:26;5.97;;;1.73;;
39434;SDS011;66825;51.880;-0.518;2023-02-10T12:58:36;3.17;;;1.63;;
39434;SDS011;66825;51.880;-0.518;2023-02-10T13:03:49;3.63;;;1.52;;
39434;SDS011;66825;51.880;-0.518;2023-02-10T13:08:48;4.05;;;1.77;;
39434;SDS011;66825;51.880;-0.518;2023-02-10T13:11:39;4.70;;;1.60;;
39434;SDS011;66825;51.880;-0.518;2023-02-10T13:14:15;3.03;;;1.60;;
39434;SDS011;66825;51.880;-0.518;2023-02-10T13:16:51;3.83;;;1.65;;
39434;SDS011;66825;51.880;-0.518;2023-02-10T13:22:23;6.72;;;2.00;;
39434;SDS011;66825;51.880;-0.518;2023-02-10T13:25:13;9.77;;;2.30;;
39434;SDS011;66825;51.880;-0.518;2023-02-10T13:30:41;7.32;;;2.45;;
39434;SDS011;66825;51.880;-0.518;2023-02-10T13:36:10;7.28;;;2.10;;
39434;SDS011;66825;51.880;-0.518;2023-02-10T13:38:39;6.05;;;1.77;;
39434;SDS011;66825;51.880;-0.518;2023-02-10T13:41:05;5.20;;;2.10;;
39434;SDS011;66825;51.880;-0.518;2023-02-10T13:43:54;5.90;;;2.10;;
39434;SDS011;66825;51.880;-0.518;2023-02-10T13:46:22;5.25;;;1.92;;
39434;SDS011;66825;51.880;-0.518;2023-02-10T13:48:52;5.45;;;1.90;;
39434;SDS011;66825;51.880;-0.518;2023-02-10T13:51:28;9.50;;;1.92;;
39434;SDS011;66825;51.880;-0.518;2023-02-10T13:53:56;6.00;;;1.70;;
39434;SDS011;66825;51.880;-0.518;2023-02-10T14:01:33;7.00;;;2.00;;
39434;SDS011;66825;51.880;-0.518;2023-02-10T14:04:07;8.30;;;2.30;;
39434;SDS011;66825;51.880;-0.518;2023-02-10T14:06:52;12.07;;;2.20;;
39434;SDS011;66825;51.880;-0.518;2023-02-10T14:09:31;5.53;;;1.95;;
39434;SDS011;66825;51.880;-0.518;2023-02-10T14:12:00;6.80;;;2.38;;
39434;SDS011;66825;51.880;-0.518;2023-02-10T14:14:37;7.20;;;2.58;;
39434;SDS011;66825;51.880;-0.518;2023-02-10T14:19:54;8.52;;;2.45;;
39434;SDS011;66825;51.880;-0.518;2023-02-10T14:24:48;6.05;;;1.95;;
39434;SDS011;66825;51.880;-0.518;2023-02-10T14:27:15;5.97;;;2.00;;
39434;SDS011;66825;51.880;-0.518;2023-02-10T14:29:50;7.95;;;1.80;;
39434;SDS011;66825;51.880;-0.518;2023-02-10T14:32:18;8.40;;;2.00;;
39434;SDS011;66825;51.880;-0.518;2023-02-10T14:34:55;5.03;;;2.00;;
39434;SDS011;66825;51.880;-0.518;2023-02-10T14:37:21;6.47;;;2.20;;
39434;SDS011;66825;51.880;-0.518;2023-02-10T14:39:57;8.05;;;2.00;;
39434;SDS011;66825;51.880;-0.518;2023-02-10T14:42:25;7.45;;;2.03;;
39434;SDS011;66825;51.880;-0.518;2023-02-10T14:44:59;6.32;;;2.38;;
39434;SDS011;66825;51.880;-0.518;2023-02-10T14:49:53;4.97;;;2.08;;
39434;SDS011;66825;51.880;-0.518;2023-02-10T14:52:21;5.97;;;2.20;;
39434;SDS011;66825;51.880;-0.518;2023-02-10T14:54:58;8.65;;;2.30;;
39434;SDS011;66825;51.880;-0.518;2023-02-10T14:57:43;4.82;;;1.73;;
39434;SDS011;66825;51.880;-0.518;2023-02-10T15:00:12;5.13;;;2.13;;
39434;SDS011;66825;51.880;-0.518;2023-02-10T15:02:38;5.82;;;2.03;;
39434;SDS011;66825;51.880;-0.518;2023-02-10T15:05:06;4.75;;;1.80;;
39434;SDS011;66825;51.880;-0.518;2023-02-10T15:07:36;3.72;;;1.80;;
39434;SDS011;66825;51.880;-0.518;2023-02-10T15:10:11;4.93;;;1.77;;
39434;SDS011;66825;51.880;-0.518;2023-02-10T15:12:38;4.18;;;1.63;;
39434;SDS011;66825;51.880;-0.518;2023-02-10T15:17:54;4.80;;;1.90;;
39434;SDS011;66825;51.880;-0.518;2023-02-10T15:20:26;4.18;;;1.65;;
39434;SDS011;66825;51.880;-0.518;2023-02-10T15:31:35;4.43;;;1.63;;
39434;SDS011;66825;51.880;-0.518;2023-02-10T15:33:40;5.25;;;1.80;;
39434;SDS011;66825;51.880;-0.518;2023-02-10T15:36:23;3.92;;;1.73;;
39434;SDS011;66825;51.880;-0.518;2023-02-10T15:46:45;3.17;;;1.50;;
39434;SDS011;66825;51.880;-0.518;2023-02-10T15:49:12;4.50;;;1.55;;
39434;SDS011;66825;51.880;-0.518;2023-02-10T15:51:41;5.85;;;1.80;;
39434;SDS011;66825;51.880;-0.518;2023-02-10T15:54:29;3.60;;;1.50;;
39434;SDS011;66825;51.880;-0.518;2023-02-10T15:56:59;7.15;;;1.88;;
39434;SDS011;66825;51.880;-0.518;2023-02-10T15:59:26;4.90;;;1.80;;
39434;SDS011;66825;51.880;-0.518;2023-02-10T16:01:56;6.25;;;1.70;;
39434;SDS011;66825;51.880;-0.518;2023-02-10T16:04:23;4.95;;;1.98;;
39434;SDS011;66825;51.880;-0.518;2023-02-10T16:06:50;5.78;;;1.88;;
39434;SDS011;66825;51.880;-0.518;2023-02-10T16:09:15;3.83;;;1.73;;
39434;SDS011;66825;51.880;-0.518;2023-02-10T16:11:41;6.45;;;2.03;;
39434;SDS011;66825;51.880;-0.518;2023-02-10T16:14:07;6.00;;;1.88;;
39434;SDS011;66825;51.880;-0.518;2023-02-10T16:16:32;4.90;;;1.80;;
39434;SDS011;66825;51.880;-0.518;2023-02-10T16:19:00;4.63;;;1.55;;
39434;SDS011;66825;51.880;-0.518;2023-02-10T16:21:26;4.50;;;1.73;;
39434;SDS011;66825;51.880;-0.518;2023-02-10T16:23:52;4.20;;;1.75;;
39434;SDS011;66825;51.880;-0.518;2023-02-10T16:26:19;4.40;;;1.85;;
39434;SDS011;66825;51.880;-0.518;2023-02-10T16:28:47;4.32;;;1.60;;
39434;SDS011;66825;51.880;-0.518;2023-02-10T16:31:12;3.60;;;1.48;;
39434;SDS011;66825;51.880;-0.518;2023-02-10T16:33:38;3.28;;;1.58;;
39434;SDS011;66825;51.880;-0.518;2023-02-10T16:36:06;3.40;;;1.67;;
39434;SDS011;66825;51.880;-0.518;2023-02-10T16:38:32;4.22;;;1.50;;
39434;SDS011;66825;51.880;-0.518;2023-02-10T16:40:59;2.80;;;1.40;;
39434;SDS011;66825;51.880;-0.518;2023-02-10T16:43:25;3.85;;;1.58;;
39434;SDS011;66825;51.880;-0.518;2023-02-10T16:45:50;6.00;;;1.70;;
39434;SDS011;66825;51.880;-0.518;2023-02-10T16:48:16;4.55;;;1.58;;
39434;SDS011;66825;51.880;-0.518;2023-02-10T16:50:43;4.95;;;1.80;;
39434;SDS011;66825;51.880;-0.518;2023-02-10T16:53:09;3.70;;;1.58;;
39434;SDS011;66825;51.880;-0.518;2023-02-10T16:55:36;2.85;;;1.30;;
39434;SDS011;66825;51.880;-0.518;2023-02-10T16:58:02;3.42;;;1.17;;